sensor_id;sensor_type;location;lat;lon;timestamp;pressure;altitude;pressure_sealevel;temperature;humidity
21588;BME280;10956;48.878;13.316;2022-07-06T00:02:21;94551.72;;;15.76;86.77
21588;BME280;10956;48.878;13.316;2022-07-06T00:04:46;94552.28;;;15.73;84.40
21588;BME280;10956;48.878;13.316;2022-07-06T00:07:12;94544.59;;;15.72;84.09
21588;BME280;10956;48.878;13.316;2022-07-06T00:09:39;94546.97;;;15.73;83.95
21588;BME280;10956;48.878;13.316;2022-07-06T00:12:05;94547.97;;;15.77;84.09
21588;BME280;10956;48.878;13.316;2022-07-06T00:14:31;94556.81;;;15.73;86.24
21588;BME280;10956;48.878;13.316;2022-07-06T00:16:56;94551.28;;;15.69;88.83
21588;BME280;10956;48.878;13.316;2022-07-06T00:19:21;94557.97;;;15.67;90.64
21588;BME280;10956;48.878;13.316;2022-07-06T00:21:47;94554.59;;;15.61;90.03
21588;BME280;10956;48.878;13.316;2022-07-06T00:24:12;94551.97;;;15.56;89.90
21588;BME280;10956;48.878;13.316;2022-07-06T00:26:38;94557.09;;;15.52;88.95
21588;BME280;10956;48.878;13.316;2022-07-06T00:29:04;94560.59;;;15.48;90.66
21588;BME280;10956;48.878;13.316;2022-07-06T00:31:29;94555.84;;;15.45;91.08
21588;BME280;10956;48.878;13.316;2022-07-06T00:33:55;94557.50;;;15.41;91.19
21588;BME280;10956;48.878;13.316;2022-07-06T00:36:20;94557.00;;;15.39;92.67
21588;BME280;10956;48.878;13.316;2022-07-06T00:38:45;94567.63;;;15.39;92.33
21588;BME280;10956;48.878;13.316;2022-07-06T00:41:15;94569.50;;;15.38;91.79
21588;BME280;10956;48.878;13.316;2022-07-06T00:43:53;94561.38;;;15.30;93.79
21588;BME280;10956;48.878;13.316;2022-07-06T00:46:31;94551.41;;;15.22;92.95
21588;BME280;10956;48.878;13.316;2022-07-06T00:48:57;94551.81;;;15.29;92.49
21588;BME280;10956;48.878;13.316;2022-07-06T00:51:25;94554.78;;;15.27;91.89
21588;BME280;10956;48.878;13.316;2022-07-06T00:53:52;94550.81;;;15.25;91.99
21588;BME280;10956;48.878;13.316;2022-07-06T00:56:18;94556.91;;;15.25;92.28
21588;BME280;10956;48.878;13.316;2022-07-06T00:58:44;94558.84;;;15.19;92.28
21588;BME280;10956;48.878;13.316;2022-07-06T01:01:10;94552.75;;;15.19;92.27
21588;BME280;10956;48.878;13.316;2022-07-06T01:03:35;94549.88;;;15.15;91.91
21588;BME280;10956;48.878;13.316;2022-07-06T01:06:00;94552.53;;;15.15;91.38
21588;BME280;10956;48.878;13.316;2022-07-06T01:08:26;94548.81;;;15.16;90.48
21588;BME280;10956;48.878;13.316;2022-07-06T01:10:51;94541.91;;;15.15;90.60
21588;BME280;10956;48.878;13.316;2022-07-06T01:13:17;94541.91;;;15.15;92.04
21588;BME280;10956;48.878;13.316;2022-07-06T01:15:43;94539.91;;;15.07;93.13
21588;BME280;10956;48.878;13.316;2022-07-06T01:18:10;94544.41;;;15.07;93.33
21588;BME280;10956;48.878;13.316;2022-07-06T01:20:36;94540.47;;;15.04;94.51
21588;BME280;10956;48.878;13.316;2022-07-06T01:23:02;94543.13;;;15.04;95.23
21588;BME280;10956;48.878;13.316;2022-07-06T01:25:27;94540.53;;;14.99;95.65
21588;BME280;10956;48.878;13.316;2022-07-06T01:27:53;94535.28;;;14.94;96.63
21588;BME280;10956;48.878;13.316;2022-07-06T01:30:19;94537.72;;;14.91;97.54
21588;BME280;10956;48.878;13.316;2022-07-06T01:32:45;94534.72;;;14.97;95.82
21588;BME280;10956;48.878;13.316;2022-07-06T01:35:12;94532.34;;;14.96;96.14
21588;BME280;10956;48.878;13.316;2022-07-06T01:37:38;94526.81;;;14.92;97.26
21588;BME280;10956;48.878;13.316;2022-07-06T01:40:06;94533.75;;;14.88;97.40
21588;BME280;10956;48.878;13.316;2022-07-06T01:42:32;94529.53;;;14.87;97.39
21588;BME280;10956;48.878;13.316;2022-07-06T01:44:58;94530.09;;;14.84;97.61
21588;BME280;10956;48.878;13.316;2022-07-06T01:47:23;94524.34;;;14.77;99.01
21588;BME280;10956;48.878;13.316;2022-07-06T01:49:49;94531.84;;;14.70;100.00
21588;BME280;10956;48.878;13.316;2022-07-06T01:52:15;94530.34;;;14.64;100.00
21588;BME280;10956;48.878;13.316;2022-07-06T01:54:40;94531.47;;;14.58;100.00
21588;BME280;10956;48.878;13.316;2022-07-06T01:57:06;94526.16;;;14.58;100.00
21588;BME280;10956;48.878;13.316;2022-07-06T01:59:31;94522.47;;;14.53;100.00
21588;BME280;10956;48.878;13.316;2022-07-06T02:01:57;94527.16;;;14.62;99.16
21588;BME280;10956;48.878;13.316;2022-07-06T02:04:23;94525.94;;;14.54;98.97
21588;BME280;10956;48.878;13.316;2022-07-06T02:06:48;94533.09;;;14.53;99.02
21588;BME280;10956;48.878;13.316;2022-07-06T02:09:13;94531.00;;;14.50;98.17
21588;BME280;10956;48.878;13.316;2022-07-06T02:11:39;94536.53;;;14.54;97.82
21588;BME280;10956;48.878;13.316;2022-07-06T02:14:05;94542.06;;;14.58;97.92
21588;BME280;10956;48.878;13.316;2022-07-06T02:16:30;94542.63;;;14.54;98.58
21588;BME280;10956;48.878;13.316;2022-07-06T02:18:56;94543.69;;;14.53;99.42
21588;BME280;10956;48.878;13.316;2022-07-06T02:21:21;94546.59;;;14.57;99.10
21588;BME280;10956;48.878;13.316;2022-07-06T02:23:47;94540.53;;;14.51;99.16
21588;BME280;10956;48.878;13.316;2022-07-06T02:26:12;94549.06;;;14.48;99.06
21588;BME280;10956;48.878;13.316;2022-07-06T02:28:37;94537.44;;;14.44;98.46
21588;BME280;10956;48.878;13.316;2022-07-06T02:31:03;94538.78;;;14.42;98.31
21588;BME280;10956;48.878;13.316;2022-07-06T02:33:28;94541.84;;;14.54;96.88
21588;BME280;10956;48.878;13.316;2022-07-06T02:35:54;94541.06;;;14.53;96.67
21588;BME280;10956;48.878;13.316;2022-07-06T02:38:19;94542.41;;;14.51;96.91
21588;BME280;10956;48.878;13.316;2022-07-06T02:40:45;94551.72;;;14.48;97.40
21588;BME280;10956;48.878;13.316;2022-07-06T02:43:10;94555.38;;;14.52;97.07
21588;BME280;10956;48.878;13.316;2022-07-06T02:45:36;94552.78;;;14.47;97.96
21588;BME280;10956;48.878;13.316;2022-07-06T02:48:02;94557.28;;;14.47;96.73
21588;BME280;10956;48.878;13.316;2022-07-06T02:50:27;94560.22;;;14.45;96.71
21588;BME280;10956;48.878;13.316;2022-07-06T02:52:52;94558.13;;;14.42;97.71
21588;BME280;10956;48.878;13.316;2022-07-06T02:55:18;94558.94;;;14.43;97.72
21588;BME280;10956;48.878;13.316;2022-07-06T02:57:44;94563.94;;;14.44;97.32
21588;BME280;10956;48.878;13.316;2022-07-06T03:00:10;94557.09;;;14.38;96.97
21588;BME280;10956;48.878;13.316;2022-07-06T03:02:36;94572.47;;;14.36;97.72
21588;BME280;10956;48.878;13.316;2022-07-06T03:05:02;94564.97;;;14.48;96.34
21588;BME280;10956;48.878;13.316;2022-07-06T03:07:28;94571.91;;;14.39;97.85
21588;BME280;10956;48.878;13.316;2022-07-06T03:09:53;94570.34;;;14.38;98.24
21588;BME280;10956;48.878;13.316;2022-07-06T03:12:18;94572.72;;;14.40;97.55
21588;BME280;10956;48.878;13.316;2022-07-06T03:14:44;94577.28;;;14.34;98.46
21588;BME280;10956;48.878;13.316;2022-07-06T03:17:09;94579.91;;;14.34;98.47
21588;BME280;10956;48.878;13.316;2022-07-06T03:19:34;94583.09;;;14.36;98.00
21588;BME280;10956;48.878;13.316;2022-07-06T03:22:00;94578.09;;;14.30;98.97
21588;BME280;10956;48.878;13.316;2022-07-06T03:24:25;94579.97;;;14.29;99.30
21588;BME280;10956;48.878;13.316;2022-07-06T03:26:51;94583.50;;;14.19;100.00
21588;BME280;10956;48.878;13.316;2022-07-06T03:29:16;94586.66;;;14.21;100.00
21588;BME280;10956;48.878;13.316;2022-07-06T03:31:42;94584.28;;;14.20;100.00
21588;BME280;10956;48.878;13.316;2022-07-06T03:34:07;94588.44;;;14.31;100.00
21588;BME280;10956;48.878;13.316;2022-07-06T03:36:33;94593.69;;;14.36;100.00
21588;BME280;10956;48.878;13.316;2022-07-06T03:38:58;94580.16;;;14.38;100.00
21588;BME280;10956;48.878;13.316;2022-07-06T03:41:23;94582.78;;;14.43;100.00
21588;BME280;10956;48.878;13.316;2022-07-06T03:43:49;94589.38;;;14.45;100.00
21588;BME280;10956;48.878;13.316;2022-07-06T03:46:14;94585.94;;;14.45;100.00
21588;BME280;10956;48.878;13.316;2022-07-06T03:48:40;94587.19;;;14.52;100.00
21588;BME280;10956;48.878;13.316;2022-07-06T03:51:05;94575.94;;;14.66;99.12
21588;BME280;10956;48.878;13.316;2022-07-06T03:53:31;94580.34;;;14.75;97.05
21588;BME280;10956;48.878;13.316;2022-07-06T03:55:57;94570.63;;;14.66;97.24
21588;BME280;10956;48.878;13.316;2022-07-06T03:58:41;94578.06;;;14.64;97.15
21588;BME280;10956;48.878;13.316;2022-07-06T04:01:06;94581.34;;;14.56;97.74
21588;BME280;10956;48.878;13.316;2022-07-06T04:03:32;94575.47;;;14.59;97.33
21588;BME280;10956;48.878;13.316;2022-07-06T04:05:57;94582.81;;;14.67;97.33
21588;BME280;10956;48.878;13.316;2022-07-06T04:08:23;94579.25;;;14.76;96.95
21588;BME280;10956;48.878;13.316;2022-07-06T04:10:48;94585.75;;;14.89;96.11
21588;BME280;10956;48.878;13.316;2022-07-06T04:13:13;94583.38;;;15.11;95.96
21588;BME280;10956;48.878;13.316;2022-07-06T04:15:39;94577.31;;;15.30;94.57
21588;BME280;10956;48.878;13.316;2022-07-06T04:18:04;94581.84;;;15.48;93.60
21588;BME280;10956;48.878;13.316;2022-07-06T04:20:30;94579.06;;;15.58;93.00
21588;BME280;10956;48.878;13.316;2022-07-06T04:22:55;94583.47;;;15.68;92.57
21588;BME280;10956;48.878;13.316;2022-07-06T04:25:21;94585.97;;;15.78;91.30
21588;BME280;10956;48.878;13.316;2022-07-06T04:27:46;94583.53;;;15.81;90.95
21588;BME280;10956;48.878;13.316;2022-07-06T04:30:12;94588.75;;;15.87;90.40
21588;BME280;10956;48.878;13.316;2022-07-06T04:32:38;94584.66;;;15.94;90.55
21588;BME280;10956;48.878;13.316;2022-07-06T04:35:05;94584.28;;;16.01;90.62
21588;BME280;10956;48.878;13.316;2022-07-06T04:37:31;94584.84;;;16.17;91.27
21588;BME280;10956;48.878;13.316;2022-07-06T04:39:56;94588.53;;;16.34;89.18
21588;BME280;10956;48.878;13.316;2022-07-06T04:42:22;94588.78;;;16.52;87.94
21588;BME280;10956;48.878;13.316;2022-07-06T04:44:47;94582.72;;;16.65;87.52
21588;BME280;10956;48.878;13.316;2022-07-06T04:47:13;94582.34;;;16.71;87.33
21588;BME280;10956;48.878;13.316;2022-07-06T04:49:39;94587.84;;;16.75;87.10
21588;BME280;10956;48.878;13.316;2022-07-06T04:52:05;94589.34;;;16.81;87.41
21588;BME280;10956;48.878;13.316;2022-07-06T04:54:30;94592.78;;;16.82;87.49
21588;BME280;10956;48.878;13.316;2022-07-06T04:56:55;94587.25;;;16.78;87.35
21588;BME280;10956;48.878;13.316;2022-07-06T04:59:21;94587.25;;;16.78;86.67
21588;BME280;10956;48.878;13.316;2022-07-06T05:01:47;94598.81;;;16.87;85.46
21588;BME280;10956;48.878;13.316;2022-07-06T05:04:12;94593.19;;;16.89;86.08
21588;BME280;10956;48.878;13.316;2022-07-06T05:06:38;94590.91;;;16.82;86.62
21588;BME280;10956;48.878;13.316;2022-07-06T05:09:04;94595.25;;;16.78;87.79
21588;BME280;10956;48.878;13.316;2022-07-06T05:11:29;94592.69;;;16.73;89.03
21588;BME280;10956;48.878;13.316;2022-07-06T05:13:55;94597.72;;;16.74;88.82
21588;BME280;10956;48.878;13.316;2022-07-06T05:16:21;94602.25;;;16.74;89.01
21588;BME280;10956;48.878;13.316;2022-07-06T05:18:46;94593.19;;;16.75;88.67
21588;BME280;10956;48.878;13.316;2022-07-06T05:21:12;94596.91;;;16.74;87.73
21588;BME280;10956;48.878;13.316;2022-07-06T05:23:37;94604.59;;;16.75;86.96
21588;BME280;10956;48.878;13.316;2022-07-06T05:26:03;94602.25;;;16.74;88.52
21588;BME280;10956;48.878;13.316;2022-07-06T05:28:28;94608.56;;;16.78;89.37
21588;BME280;10956;48.878;13.316;2022-07-06T05:30:54;94611.22;;;16.78;89.65
21588;BME280;10956;48.878;13.316;2022-07-06T05:33:19;94606.59;;;16.84;89.06
21588;BME280;10956;48.878;13.316;2022-07-06T05:35:45;94611.91;;;16.84;89.88
21588;BME280;10956;48.878;13.316;2022-07-06T05:38:10;94618.44;;;16.91;89.04
21588;BME280;10956;48.878;13.316;2022-07-06T05:40:36;94613.50;;;16.98;89.39
21588;BME280;10956;48.878;13.316;2022-07-06T05:43:01;94611.94;;;17.11;88.69
21588;BME280;10956;48.878;13.316;2022-07-06T05:45:27;94611.94;;;17.25;87.34
21588;BME280;10956;48.878;13.316;2022-07-06T05:47:52;94614.66;;;17.47;86.72
21588;BME280;10956;48.878;13.316;2022-07-06T05:50:36;94620.97;;;17.79;85.60
21588;BME280;10956;48.878;13.316;2022-07-06T05:53:03;94626.09;;;18.11;84.52
21588;BME280;10956;48.878;13.316;2022-07-06T05:55:29;94639.50;;;18.42;82.35
21588;BME280;10956;48.878;13.316;2022-07-06T05:57:55;94641.03;;;18.79;81.05
21588;BME280;10956;48.878;13.316;2022-07-06T06:00:24;94644.81;;;19.18;79.27
21588;BME280;10956;48.878;13.316;2022-07-06T06:02:50;94643.34;;;19.51;78.11
21588;BME280;10956;48.878;13.316;2022-07-06T06:05:16;94648.75;;;19.60;77.77
21588;BME280;10956;48.878;13.316;2022-07-06T06:07:42;94655.06;;;19.73;77.37
21588;BME280;10956;48.878;13.316;2022-07-06T06:10:10;94650.72;;;20.03;76.83
21588;BME280;10956;48.878;13.316;2022-07-06T06:12:36;94656.06;;;20.11;76.64
21588;BME280;10956;48.878;13.316;2022-07-06T06:15:02;94650.09;;;20.14;76.79
21588;BME280;10956;48.878;13.316;2022-07-06T06:17:28;94648.03;;;20.20;76.66
21588;BME280;10956;48.878;13.316;2022-07-06T06:19:53;94643.47;;;20.20;76.46
21588;BME280;10956;48.878;13.316;2022-07-06T06:22:19;94644.09;;;20.00;77.36
21588;BME280;10956;48.878;13.316;2022-07-06T06:24:44;94639.53;;;19.92;77.54
21588;BME280;10956;48.878;13.316;2022-07-06T06:27:10;94639.53;;;19.92;77.98
21588;BME280;10956;48.878;13.316;2022-07-06T06:29:36;94640.78;;;19.94;78.51
21588;BME280;10956;48.878;13.316;2022-07-06T06:32:01;94632.47;;;19.96;78.98
21588;BME280;10956;48.878;13.316;2022-07-06T06:34:27;94643.91;;;19.79;80.01
21588;BME280;10956;48.878;13.316;2022-07-06T06:36:52;94644.38;;;19.73;80.61
21588;BME280;10956;48.878;13.316;2022-07-06T06:39:17;94649.84;;;19.59;81.54
21588;BME280;10956;48.878;13.316;2022-07-06T06:41:43;94643.34;;;19.51;82.65
21588;BME280;10956;48.878;13.316;2022-07-06T06:44:08;94643.97;;;19.48;82.87
21588;BME280;10956;48.878;13.316;2022-07-06T06:46:34;94648.38;;;19.44;84.40
21588;BME280;10956;48.878;13.316;2022-07-06T06:48:59;94645.56;;;19.49;84.08
21588;BME280;10956;48.878;13.316;2022-07-06T06:51:25;94647.00;;;19.55;84.60
21588;BME280;10956;48.878;13.316;2022-07-06T06:53:50;94646.88;;;19.60;83.19
21588;BME280;10956;48.878;13.316;2022-07-06T06:56:15;94643.41;;;19.60;83.45
21588;BME280;10956;48.878;13.316;2022-07-06T06:58:42;94647.34;;;19.62;84.00
21588;BME280;10956;48.878;13.316;2022-07-06T07:01:07;94638.91;;;19.86;83.29
21588;BME280;10956;48.878;13.316;2022-07-06T07:03:32;94637.81;;;20.13;80.81
21588;BME280;10956;48.878;13.316;2022-07-06T07:05:58;94641.59;;;20.29;79.49
21588;BME280;10956;48.878;13.316;2022-07-06T07:08:23;94653.72;;;20.36;79.63
21588;BME280;10956;48.878;13.316;2022-07-06T07:10:49;94636.56;;;20.37;79.86
21588;BME280;10956;48.878;13.316;2022-07-06T07:13:14;94655.75;;;20.21;80.69
21588;BME280;10956;48.878;13.316;2022-07-06T07:15:40;94648.81;;;20.03;81.46
21588;BME280;10956;48.878;13.316;2022-07-06T07:18:05;94652.91;;;19.92;82.01
21588;BME280;10956;48.878;13.316;2022-07-06T07:20:31;94649.44;;;19.83;82.42
21588;BME280;10956;48.878;13.316;2022-07-06T07:22:59;94656.34;;;19.84;83.76
21588;BME280;10956;48.878;13.316;2022-07-06T07:25:24;94651.31;;;19.91;84.91
21588;BME280;10956;48.878;13.316;2022-07-06T07:27:50;94659.81;;;19.93;84.71
21588;BME280;10956;48.878;13.316;2022-07-06T07:30:15;94651.19;;;19.96;85.07
21588;BME280;10956;48.878;13.316;2022-07-06T07:32:41;94645.06;;;20.04;84.03
21588;BME280;10956;48.878;13.316;2022-07-06T07:35:06;94654.97;;;20.29;83.69
21588;BME280;10956;48.878;13.316;2022-07-06T07:37:32;94654.78;;;20.86;81.99
21588;BME280;10956;48.878;13.316;2022-07-06T07:39:58;94653.34;;;21.44;80.15
21588;BME280;10956;48.878;13.316;2022-07-06T07:42:24;94651.03;;;21.93;77.59
21588;BME280;10956;48.878;13.316;2022-07-06T07:44:49;94644.19;;;22.25;76.00
21588;BME280;10956;48.878;13.316;2022-07-06T07:47:15;94655.16;;;22.53;74.72
21588;BME280;10956;48.878;13.316;2022-07-06T07:49:40;94650.72;;;22.57;74.14
21588;BME280;10956;48.878;13.316;2022-07-06T07:52:06;94649.81;;;22.32;74.91
21588;BME280;10956;48.878;13.316;2022-07-06T07:54:31;94661.56;;;21.98;76.06
21588;BME280;10956;48.878;13.316;2022-07-06T07:56:56;94657.31;;;21.68;77.82
21588;BME280;10956;48.878;13.316;2022-07-06T07:59:22;94656.78;;;21.53;78.38
21588;BME280;10956;48.878;13.316;2022-07-06T08:01:48;94660.00;;;21.38;78.95
21588;BME280;10956;48.878;13.316;2022-07-06T08:04:13;94659.72;;;21.31;79.73
21588;BME280;10956;48.878;13.316;2022-07-06T08:06:38;94667.56;;;21.36;79.15
21588;BME280;10956;48.878;13.316;2022-07-06T08:09:04;94653.88;;;21.29;79.63
21588;BME280;10956;48.878;13.316;2022-07-06T08:11:32;94660.94;;;21.42;79.66
21588;BME280;10956;48.878;13.316;2022-07-06T08:13:58;94651.13;;;21.76;79.25
21588;BME280;10956;48.878;13.316;2022-07-06T08:16:23;94653.22;;;22.20;78.00
21588;BME280;10956;48.878;13.316;2022-07-06T08:18:49;94660.91;;;22.64;76.35
21588;BME280;10956;48.878;13.316;2022-07-06T08:21:14;94653.53;;;22.94;74.76
21588;BME280;10956;48.878;13.316;2022-07-06T08:23:39;94652.69;;;23.14;74.36
21588;BME280;10956;48.878;13.316;2022-07-06T08:26:05;94654.28;;;23.39;73.62
21588;BME280;10956;48.878;13.316;2022-07-06T08:28:31;94652.16;;;23.45;73.66
21588;BME280;10956;48.878;13.316;2022-07-06T08:30:56;94658.66;;;23.44;72.81
21588;BME280;10956;48.878;13.316;2022-07-06T08:33:22;94650.72;;;23.47;72.31
21588;BME280;10956;48.878;13.316;2022-07-06T08:35:47;94654.91;;;23.57;73.17
21588;BME280;10956;48.878;13.316;2022-07-06T08:38:12;94653.31;;;23.56;72.33
21588;BME280;10956;48.878;13.316;2022-07-06T08:40:40;94655.88;;;23.40;72.08
21588;BME280;10956;48.878;13.316;2022-07-06T08:43:07;94666.56;;;23.04;70.16
21588;BME280;10956;48.878;13.316;2022-07-06T08:45:34;94659.72;;;22.73;68.97
21588;BME280;10956;48.878;13.316;2022-07-06T08:48:05;94671.53;;;22.60;68.89
21588;BME280;10956;48.878;13.316;2022-07-06T08:50:32;94668.94;;;22.51;68.05
21588;BME280;10956;48.878;13.316;2022-07-06T08:52:57;94670.03;;;22.50;66.13
21588;BME280;10956;48.878;13.316;2022-07-06T08:55:25;94669.72;;;22.52;65.22
21588;BME280;10956;48.878;13.316;2022-07-06T08:57:51;94670.88;;;22.63;65.01
21588;BME280;10956;48.878;13.316;2022-07-06T09:00:17;94667.78;;;22.73;64.96
21588;BME280;10956;48.878;13.316;2022-07-06T09:02:43;94668.00;;;22.68;65.89
21588;BME280;10956;48.878;13.316;2022-07-06T09:05:09;94671.13;;;22.70;64.95
21588;BME280;10956;48.878;13.316;2022-07-06T09:07:37;94675.84;;;22.73;64.05
21588;BME280;10956;48.878;13.316;2022-07-06T09:10:03;94677.16;;;22.67;62.68
21588;BME280;10956;48.878;13.316;2022-07-06T09:12:30;94667.88;;;22.44;61.77
21588;BME280;10956;48.878;13.316;2022-07-06T09:14:56;94668.41;;;22.16;62.98
21588;BME280;10956;48.878;13.316;2022-07-06T09:17:26;94675.16;;;21.93;63.57
21588;BME280;10956;48.878;13.316;2022-07-06T09:19:52;94673.41;;;21.68;63.87
21588;BME280;10956;48.878;13.316;2022-07-06T09:22:31;94673.41;;;21.68;65.68
21588;BME280;10956;48.878;13.316;2022-07-06T09:25:07;94662.84;;;21.71;66.39
21588;BME280;10956;48.878;13.316;2022-07-06T09:27:38;94665.19;;;21.73;66.38
21588;BME280;10956;48.878;13.316;2022-07-06T09:30:04;94670.56;;;21.73;65.29
21588;BME280;10956;48.878;13.316;2022-07-06T09:32:30;94669.91;;;21.46;64.84
21588;BME280;10956;48.878;13.316;2022-07-06T09:34:56;94665.75;;;21.57;65.08
21588;BME280;10956;48.878;13.316;2022-07-06T09:37:21;94673.56;;;21.71;64.75
21588;BME280;10956;48.878;13.316;2022-07-06T09:39:49;94670.19;;;21.83;63.04
21588;BME280;10956;48.878;13.316;2022-07-06T09:42:14;94665.56;;;21.92;64.17
21588;BME280;10956;48.878;13.316;2022-07-06T09:44:41;94671.66;;;22.01;64.01
21588;BME280;10956;48.878;13.316;2022-07-06T09:47:08;94678.63;;;21.93;61.17
21588;BME280;10956;48.878;13.316;2022-07-06T09:49:38;94678.19;;;21.91;60.19
21588;BME280;10956;48.878;13.316;2022-07-06T09:52:05;94674.66;;;22.00;61.23
21588;BME280;10956;48.878;13.316;2022-07-06T09:54:33;94667.16;;;22.14;62.26
21588;BME280;10956;48.878;13.316;2022-07-06T09:57:00;94674.25;;;22.18;63.02
21588;BME280;10956;48.878;13.316;2022-07-06T09:59:27;94674.78;;;22.33;62.92
21588;BME280;10956;48.878;13.316;2022-07-06T10:01:55;94677.91;;;22.35;63.44
21588;BME280;10956;48.878;13.316;2022-07-06T10:04:22;94683.41;;;22.17;60.45
21588;BME280;10956;48.878;13.316;2022-07-06T10:06:48;94672.88;;;22.12;61.14
21588;BME280;10956;48.878;13.316;2022-07-06T10:09:14;94672.28;;;22.28;60.85
21588;BME280;10956;48.878;13.316;2022-07-06T10:11:43;94672.34;;;22.40;59.87
21588;BME280;10956;48.878;13.316;2022-07-06T10:14:10;94667.50;;;22.33;59.28
21588;BME280;10956;48.878;13.316;2022-07-06T10:16:38;94666.06;;;22.36;59.92
21588;BME280;10956;48.878;13.316;2022-07-06T10:19:08;94668.53;;;22.41;60.93
21588;BME280;10956;48.878;13.316;2022-07-06T10:21:38;94674.16;;;22.06;56.75
21588;BME280;10956;48.878;13.316;2022-07-06T10:24:05;94680.25;;;21.86;56.59
21588;BME280;10956;48.878;13.316;2022-07-06T10:26:32;94668.41;;;21.87;57.68
21588;BME280;10956;48.878;13.316;2022-07-06T10:28:59;94676.09;;;21.97;57.26
21588;BME280;10956;48.878;13.316;2022-07-06T10:31:26;94675.28;;;22.05;58.26
21588;BME280;10956;48.878;13.316;2022-07-06T10:33:54;94673.13;;;22.19;55.89
21588;BME280;10956;48.878;13.316;2022-07-06T10:36:19;94674.91;;;22.15;54.37
21588;BME280;10956;48.878;13.316;2022-07-06T10:38:49;94676.56;;;21.99;53.37
21588;BME280;10956;48.878;13.316;2022-07-06T10:41:15;94680.25;;;21.86;54.73
21588;BME280;10956;48.878;13.316;2022-07-06T10:43:43;94663.25;;;21.82;55.68
21588;BME280;10956;48.878;13.316;2022-07-06T10:46:13;94675.28;;;21.76;55.90
21588;BME280;10956;48.878;13.316;2022-07-06T10:48:48;94675.63;;;21.95;56.15
21588;BME280;10956;48.878;13.316;2022-07-06T10:51:26;94679.72;;;21.72;54.69
21588;BME280;10956;48.878;13.316;2022-07-06T10:54:00;94679.06;;;21.75;56.23
21588;BME280;10956;48.878;13.316;2022-07-06T10:56:36;94672.13;;;21.74;56.05
21588;BME280;10956;48.878;13.316;2022-07-06T10:59:03;94676.19;;;21.80;59.91
21588;BME280;10956;48.878;13.316;2022-07-06T11:01:34;94671.09;;;21.87;58.07
21588;BME280;10956;48.878;13.316;2022-07-06T11:06:25;94662.06;;;21.91;61.06
21588;BME280;10956;48.878;13.316;2022-07-06T11:08:55;94666.13;;;22.06;62.27
21588;BME280;10956;48.878;13.316;2022-07-06T11:11:26;94671.16;;;22.08;61.72
21588;BME280;10956;48.878;13.316;2022-07-06T11:14:08;94666.19;;;22.18;60.93
21588;BME280;10956;48.878;13.316;2022-07-06T11:17:00;94675.22;;;22.14;59.18
21588;BME280;10956;48.878;13.316;2022-07-06T11:19:30;94671.44;;;22.36;59.86
21588;BME280;10956;48.878;13.316;2022-07-06T11:21:57;94672.19;;;22.57;60.09
21588;BME280;10956;48.878;13.316;2022-07-06T11:24:28;94671.59;;;22.72;58.10
21588;BME280;10956;48.878;13.316;2022-07-06T11:26:55;94670.53;;;22.85;57.69
21588;BME280;10956;48.878;13.316;2022-07-06T11:29:24;94664.75;;;22.96;58.32
21588;BME280;10956;48.878;13.316;2022-07-06T11:31:54;94672.78;;;22.83;58.52
21588;BME280;10956;48.878;13.316;2022-07-06T11:34:25;94670.75;;;22.80;58.27
21588;BME280;10956;48.878;13.316;2022-07-06T11:36:58;94672.03;;;22.74;57.29
21588;BME280;10956;48.878;13.316;2022-07-06T11:39:28;94677.97;;;22.47;55.53
21588;BME280;10956;48.878;13.316;2022-07-06T11:41:58;94678.09;;;22.30;56.26
21588;BME280;10956;48.878;13.316;2022-07-06T11:44:24;94668.16;;;22.30;56.40
21588;BME280;10956;48.878;13.316;2022-07-06T11:46:50;94674.78;;;22.33;57.00
21588;BME280;10956;48.878;13.316;2022-07-06T11:49:16;94671.56;;;22.39;57.13
21588;BME280;10956;48.878;13.316;2022-07-06T11:51:42;94671.28;;;22.53;58.39
21588;BME280;10956;48.878;13.316;2022-07-06T11:54:16;94672.84;;;22.54;58.49
21588;BME280;10956;48.878;13.316;2022-07-06T11:59:23;94672.03;;;22.74;60.52
21588;BME280;10956;48.878;13.316;2022-07-06T12:01:49;94664.19;;;22.69;59.78
21588;BME280;10956;48.878;13.316;2022-07-06T12:04:15;94669.56;;;22.69;59.19
21588;BME280;10956;48.878;13.316;2022-07-06T12:06:40;94662.22;;;22.78;57.56
21588;BME280;10956;48.878;13.316;2022-07-06T12:09:05;94652.88;;;22.97;57.76
21588;BME280;10956;48.878;13.316;2022-07-06T12:11:35;94649.91;;;23.23;60.48
21588;BME280;10956;48.878;13.316;2022-07-06T12:14:12;94641.78;;;23.56;60.10
21588;BME280;10956;48.878;13.316;2022-07-06T12:16:38;94642.44;;;23.77;60.39
21588;BME280;10956;48.878;13.316;2022-07-06T12:19:05;94640.66;;;23.69;60.65
21588;BME280;10956;48.878;13.316;2022-07-06T12:21:33;94645.34;;;23.47;60.98
21588;BME280;10956;48.878;13.316;2022-07-06T12:23:59;94639.94;;;23.23;61.69
21588;BME280;10956;48.878;13.316;2022-07-06T12:26:26;94641.72;;;23.07;62.08
21588;BME280;10956;48.878;13.316;2022-07-06T12:29:06;94643.47;;;22.91;61.06
21588;BME280;10956;48.878;13.316;2022-07-06T12:31:36;94648.31;;;22.76;61.56
21588;BME280;10956;48.878;13.316;2022-07-06T12:34:02;94632.72;;;22.70;61.64
21588;BME280;10956;48.878;13.316;2022-07-06T12:36:28;94653.44;;;22.69;62.04
21588;BME280;10956;48.878;13.316;2022-07-06T12:38:53;94651.28;;;22.83;60.22
21588;BME280;10956;48.878;13.316;2022-07-06T12:41:30;94660.19;;;23.08;59.19
21588;BME280;10956;48.878;13.316;2022-07-06T12:44:21;94651.13;;;23.13;57.46
21588;BME280;10956;48.878;13.316;2022-07-06T12:46:47;94653.59;;;23.18;56.15
21588;BME280;10956;48.878;13.316;2022-07-06T12:49:18;94654.50;;;23.22;55.88
21588;BME280;10956;48.878;13.316;2022-07-06T12:52:00;94645.75;;;23.25;56.94
21588;BME280;10956;48.878;13.316;2022-07-06T12:54:31;94647.75;;;23.04;56.20